»·PEaware :: FDX258 KDEN-KAMA

FDX258 :: KDEN-KAMA

FLIGHT INFORMATION

Flight Status: Arrived
Operator:
Federal Express
More flights by this operator :: More flights under this callsign
Pilot: Brad M. (22842)
Aircraft: Unknown
(B77F)
More flights by this aircraft type
Origin: KDEN Denver Intl
United States
Destination: KAMA Amarillo Intl
United States
More flights between these airports :: More routes between these airports
Route: STAKR4 PYPER KENTO PNH
File this flight plan on PilotEdge
Remarks:
Altitude:
(Current/Filed)
31,000ft
Speed:
(Current/Filed)
400kts
Departed: 29-Apr-19 03:03 PM
Arrived: 29-Apr-19 03:59 PM
Distance/Time
Traveled:
312nm/0:56
Distance/Time
To Go:
Arrived

Flight Plot

Page will automatically refresh every two minutes.

Flight plan parsing failed; only flown route is shown


Map Options




Map Legend


Flown Route
Filed Route
Departure Airport
Arrival Airport
Navaid (VOR, NDB)
Fix

Horizontal Profiles

Position Reports

Time Latitude Longitude Heading Altitude Ground
Speed
29-Apr-19 14:25 39.830920 -104.675650 359 5444ft 0kts
29-Apr-19 14:25 39.830920 -104.675650 359 5444ft 0kts
29-Apr-19 14:26 39.830920 -104.675650 359 5444ft 0kts
29-Apr-19 14:27 39.830920 -104.675650 359 5444ft 0kts
29-Apr-19 14:28 39.830920 -104.675650 359 5444ft 0kts
29-Apr-19 14:29 39.830920 -104.675650 359 5444ft 0kts
29-Apr-19 14:30 39.830920 -104.675650 359 5444ft 0kts
29-Apr-19 14:31 39.830920 -104.675650 359 5444ft 0kts
29-Apr-19 14:32 39.830920 -104.675650 359 5444ft 0kts
29-Apr-19 14:33 39.830920 -104.675650 359 5444ft 0kts
29-Apr-19 14:34 39.830920 -104.675650 359 5444ft 0kts
29-Apr-19 14:35 39.830920 -104.675650 359 5444ft 0kts
29-Apr-19 14:36 39.830920 -104.675650 359 5444ft 0kts
29-Apr-19 14:37 39.830920 -104.675650 359 5444ft 0kts
29-Apr-19 14:38 39.830920 -104.675650 359 5444ft 0kts
29-Apr-19 14:39 39.830920 -104.675650 359 5444ft 0kts
29-Apr-19 14:40 39.830484 -104.675700 17 5444ft 2kts
29-Apr-19 14:41 39.830107 -104.676167 90 5444ft 2kts
29-Apr-19 14:42 39.830107 -104.676249 90 5444ft 0kts
29-Apr-19 14:43 39.830107 -104.676249 90 5444ft 0kts
29-Apr-19 14:44 39.830107 -104.676249 90 5444ft 0kts
29-Apr-19 14:45 39.830107 -104.676249 90 5444ft 0kts
29-Apr-19 14:46 39.830105 -104.674766 90 5444ft 9kts
29-Apr-19 14:47 39.829511 -104.671703 117 5444ft 8kts
29-Apr-19 14:48 39.829338 -104.669035 89 5444ft 6kts
29-Apr-19 14:49 39.829314 -104.666227 90 5444ft 12kts
29-Apr-19 14:50 39.829855 -104.662687 4 5444ft 9kts
29-Apr-19 14:51 39.832254 -104.662629 0 5444ft 7kts
29-Apr-19 14:52 39.834260 -104.662598 0 5444ft 7kts
29-Apr-19 14:53 39.838398 -104.662546 0 5444ft 15kts
29-Apr-19 14:54 39.842280 -104.662506 0 5444ft 12kts
29-Apr-19 14:55 39.845492 -104.662471 359 5444ft 10kts
29-Apr-19 14:56 39.848656 -104.662441 0 5444ft 11kts
29-Apr-19 14:57 39.851841 -104.662359 359 5444ft 15kts
29-Apr-19 14:58 39.856100 -104.662358 0 5444ft 14kts
29-Apr-19 14:59 39.860300 -104.662326 358 5444ft 13kts
29-Apr-19 15:00 39.861114 -104.661909 89 5444ft 0kts
29-Apr-19 15:01 39.860527 -104.660173 180 5444ft 17kts
29-Apr-19 15:02 39.825954 -104.660495 180 5915ft 190kts
29-Apr-19 15:03 39.773267 -104.647930 159 8334ft 205kts
29-Apr-19 15:04 39.713903 -104.616922 158 9832ft 255kts
29-Apr-19 15:05 39.638305 -104.582692 159 11716ft 318kts
29-Apr-19 15:06 39.545264 -104.551134 171 14265ft 371kts
29-Apr-19 15:07 39.440918 -104.528455 176 17506ft 392kts
29-Apr-19 15:08 39.330836 -104.504076 176 20591ft 410kts
29-Apr-19 15:09 39.215993 -104.478541 177 23366ft 428kts
29-Apr-19 15:10 39.096823 -104.449693 174 26006ft 446kts
29-Apr-19 15:11 38.973866 -104.415016 175 28674ft 453kts
29-Apr-19 15:12 38.852002 -104.381287 176 31136ft 446kts
29-Apr-19 15:13 38.731366 -104.348069 176 31119ft 444kts
29-Apr-19 15:14 38.613625 -104.281712 149 31108ft 503kts
29-Apr-19 15:15 38.505520 -104.160447 146 31110ft 521kts
29-Apr-19 15:16 38.394925 -104.041273 147 31106ft 520kts
29-Apr-19 15:17 38.284550 -103.921993 147 31102ft 520kts
29-Apr-19 15:18 38.173792 -103.803689 147 31086ft 519kts
29-Apr-19 15:19 38.059900 -103.693522 159 31088ft 505kts
29-Apr-19 15:20 37.932036 -103.626280 168 31088ft 494kts
29-Apr-19 15:21 37.802336 -103.568882 168 31088ft 495kts
29-Apr-19 15:22 37.672468 -103.510729 167 31081ft 495kts
29-Apr-19 15:23 37.542829 -103.452819 167 31082ft 494kts
29-Apr-19 15:24 37.412674 -103.394983 167 31082ft 495kts
29-Apr-19 15:25 37.282889 -103.337518 167 31084ft 494kts
29-Apr-19 15:26 37.152963 -103.280227 167 31101ft 495kts
29-Apr-19 15:27 37.023203 -103.223126 167 31103ft 495kts
29-Apr-19 15:28 36.894344 -103.164716 161 31006ft 482kts
29-Apr-19 15:29 36.787779 -103.074346 152 30804ft 442kts
29-Apr-19 15:30 36.691117 -102.986657 152 29849ft 423kts
29-Apr-19 15:31 36.596781 -102.901394 151 28552ft 414kts
29-Apr-19 15:32 36.504545 -102.818291 151 27272ft 406kts
29-Apr-19 15:33 36.413735 -102.736718 151 26073ft 398kts
29-Apr-19 15:34 36.324707 -102.656980 151 24878ft 391kts
29-Apr-19 15:35 36.237379 -102.578984 151 23728ft 383kts
29-Apr-19 15:36 36.151345 -102.502359 151 22576ft 377kts
29-Apr-19 15:37 36.066621 -102.427108 151 21474ft 372kts
29-Apr-19 15:38 35.983205 -102.353216 151 20441ft 366kts
29-Apr-19 15:39 35.900767 -102.280385 151 19423ft 362kts
29-Apr-19 15:40 35.819267 -102.208559 151 18463ft 358kts
29-Apr-19 15:41 35.738576 -102.137644 150 17562ft 353kts
29-Apr-19 15:42 35.659043 -102.067917 150 16742ft 348kts
29-Apr-19 15:43 35.580598 -101.999294 150 15928ft 344kts
29-Apr-19 15:44 35.501145 -101.937311 164 15148ft 331kts
29-Apr-19 15:45 35.414611 -101.904380 174 14253ft 312kts
29-Apr-19 15:46 35.330706 -101.889807 176 13178ft 299kts
29-Apr-19 15:47 35.252772 -101.877231 180 12213ft 268kts
29-Apr-19 15:48 35.197234 -101.923207 225 11096ft 244kts
29-Apr-19 15:49 35.149579 -101.983085 226 10019ft 240kts
29-Apr-19 15:50 35.094987 -102.032934 183 9953ft 253kts
29-Apr-19 15:51 35.063512 -101.974592 66 9811ft 234kts
29-Apr-19 15:52 35.095070 -101.914472 56 8539ft 189kts
29-Apr-19 15:53 35.121706 -101.862152 57 6375ft 169kts
29-Apr-19 15:54 35.141703 -101.817508 53 4903ft 137kts
29-Apr-19 15:55 35.167239 -101.780726 48 4710ft 148kts
29-Apr-19 15:56 35.195141 -101.745300 46 3889ft 142kts
29-Apr-19 15:57 35.217044 -101.717655 46 3620ft 56kts
29-Apr-19 15:58 35.219411 -101.711788 132 3620ft 22kts
29-Apr-19 15:59 35.217265 -101.712153 225 3620ft 12kts
29-Apr-19 16:00 35.215008 -101.714999 226 3620ft 10kts
29-Apr-19 16:01 35.212790 -101.717792 225 3620ft 15kts
29-Apr-19 16:02 35.209923 -101.721389 225 3620ft 15kts

Navigation Log

Ident Type
Flight plan parsing failed, navigation log unavailable